KEKN/EKN METAR and TAF weather

Enter ICAO airport designator
Station Type Date Time Source
KEKN METAR 2022/12/05 14:51 UTC NOAA

KEKN 051451Z AUTO 00000KT 10SM CLR M04/M07 A3014 RMK AO2 SLP239 I1000 I3000 T10391067 58004


Station Type Date Time Source
KEKN Decoded METAR 2022/12/05 14:51 UTC NOAA

JENNINGS RANDOLPH FIELD, WV, United States (KEKN) 38-53N 079-51W 603M
Dec 05, 2022 - 09:51 AM EST / 2022.12.05 1451 UTC
Wind: Calm:0
Visibility: 10 mile(s):0
Sky conditions: clear
Temperature: 25.0 F (-3.9 C)
Dew Point: 19.9 F (-6.7 C)
Relative Humidity: 80%
Pressure (altimeter): 30.14 in. Hg (1020 hPa)
Pressure tendency: 0.01 inches (0.4 hPa) lower than three hours ago
ob: KEKN 051451Z AUTO 00000KT 10SM CLR M04/M07 A3014 RMK AO2 SLP239 I1000 I3000 T10391067 58004
cycle: 15

Station Type Date Time Source
KEKN TAF 2022/12/05 15:58 UTC NOAA

TAF
AMD KEKN 051458Z 0515/0612 00000KT P6SM BKN240
FM051700 18008KT P6SM FEW250
FM060300 16006KT P6SM BKN060

Example: see airport list